createdAt,value
2023-04-09T00:01:11.920Z,77.42
2023-04-09T00:03:40.662Z,77.12
2023-04-09T00:06:08.808Z,77.35
2023-04-09T00:08:36.651Z,77.34
2023-04-09T00:11:05.728Z,77.27
2023-04-09T00:13:39.191Z,77.23
2023-04-09T00:16:09.491Z,76.91
2023-04-09T00:18:37.506Z,76.69
2023-04-09T00:21:05.750Z,76.64
2023-04-09T00:23:34.480Z,76.39
2023-04-09T00:26:02.329Z,76.36
2023-04-09T00:28:30.647Z,76.50
2023-04-09T00:30:58.682Z,76.34
2023-04-09T00:33:26.642Z,76.48
2023-04-09T00:35:54.590Z,76.49
2023-04-09T00:38:22.644Z,76.72
2023-04-09T00:40:51.356Z,76.85
2023-04-09T00:43:19.330Z,76.74
2023-04-09T00:45:47.631Z,76.85
2023-04-09T00:48:16.417Z,76.83
2023-04-09T00:50:44.568Z,76.98
2023-04-09T00:53:14.359Z,77.04
2023-04-09T00:55:42.378Z,76.90
2023-04-09T00:58:10.282Z,77.19
2023-04-09T01:00:38.273Z,77.18
2023-04-09T01:03:07.633Z,77.36
2023-04-09T01:06:02.231Z,77.49
2023-04-09T01:08:33.100Z,77.44
2023-04-09T01:11:14.123Z,77.45
2023-04-09T01:14:00.592Z,77.59
2023-04-09T01:16:32.818Z,77.63
2023-04-09T01:19:22.986Z,77.86
2023-04-09T01:21:52.709Z,78.41
2023-04-09T01:24:59.901Z,78.40
2023-04-09T01:27:47.159Z,78.28
2023-04-09T01:30:17.292Z,78.02
2023-04-09T01:32:45.948Z,77.71
2023-04-09T01:35:14.409Z,78.00
2023-04-09T01:37:42.984Z,77.95
2023-04-09T01:40:11.366Z,77.95
2023-04-09T01:42:41.164Z,78.28
2023-04-09T01:45:11.844Z,78.20
2023-04-09T01:47:40.755Z,77.83
2023-04-09T01:50:09.222Z,78.10
2023-04-09T01:52:37.378Z,78.53
2023-04-09T01:55:05.741Z,78.37
2023-04-09T01:57:33.654Z,78.21
2023-04-09T02:00:01.609Z,78.51
2023-04-09T02:02:42.966Z,78.30
2023-04-09T02:05:15.466Z,78.32
2023-04-09T02:07:47.500Z,78.05
2023-04-09T02:10:17.414Z,78.37
2023-04-09T02:12:50.029Z,78.18
2023-04-09T02:15:20.420Z,78.37
2023-04-09T02:17:48.454Z,78.58
2023-04-09T02:20:20.056Z,78.22
2023-04-09T02:22:48.470Z,78.25
2023-04-09T02:25:16.475Z,78.39
2023-04-09T02:27:44.335Z,78.21
2023-04-09T02:30:12.349Z,78.19
2023-04-09T02:32:40.413Z,78.31
2023-04-09T02:35:08.413Z,78.29
2023-04-09T02:37:36.412Z,78.23
2023-04-09T02:40:04.600Z,78.17
2023-04-09T02:42:32.606Z,78.25
2023-04-09T02:45:00.502Z,78.29
2023-04-09T02:47:30.579Z,78.14
2023-04-09T02:49:58.589Z,78.11
2023-04-09T02:52:26.392Z,78.04
2023-04-09T02:54:54.417Z,78.32
2023-04-09T02:57:22.416Z,78.30
2023-04-09T02:59:50.347Z,78.24
2023-04-09T03:02:18.289Z,78.21
2023-04-09T03:04:46.334Z,78.32
2023-04-09T03:07:14.216Z,78.25
2023-04-09T03:09:42.116Z,78.31
2023-04-09T03:12:10.140Z,78.25
2023-04-09T03:14:37.968Z,78.37
2023-04-09T03:17:05.978Z,78.57
2023-04-09T03:19:34.021Z,78.63
2023-04-09T03:22:02.473Z,78.93
2023-04-09T03:24:32.264Z,79.09
2023-04-09T03:27:00.389Z,79.42
2023-04-09T03:29:28.237Z,79.47
2023-04-09T03:31:56.143Z,79.20
2023-04-09T03:34:24.695Z,78.93
2023-04-09T03:36:52.846Z,78.65
2023-04-09T03:39:20.747Z,78.45
2023-04-09T03:41:48.909Z,78.63
2023-04-09T03:44:17.046Z,78.68
2023-04-09T03:46:45.591Z,78.69
2023-04-09T03:49:13.557Z,78.79
2023-04-09T03:51:41.619Z,78.84
2023-04-09T03:54:09.516Z,78.77
2023-04-09T03:56:37.393Z,78.72
2023-04-09T03:59:05.496Z,78.52
2023-04-09T04:01:33.506Z,78.65
2023-04-09T04:04:01.822Z,78.95
2023-04-09T04:06:30.066Z,78.69
2023-04-09T04:08:57.988Z,78.69
2023-04-09T04:11:25.967Z,78.73
2023-04-09T04:13:55.856Z,78.88
2023-04-09T04:16:24.321Z,78.75
2023-04-09T04:18:52.408Z,78.49
2023-04-09T04:21:20.426Z,78.57
2023-04-09T04:23:48.314Z,78.47
2023-04-09T04:26:16.237Z,78.76
2023-04-09T04:28:44.374Z,78.96
2023-04-09T04:31:13.176Z,78.90
2023-04-09T04:33:42.464Z,78.87
2023-04-09T04:36:14.516Z,78.73
2023-04-09T04:38:42.694Z,78.59
2023-04-09T04:41:11.540Z,78.74
2023-04-09T04:43:41.485Z,78.56
2023-04-09T04:46:09.465Z,78.69
2023-04-09T04:48:37.812Z,78.82
2023-04-09T04:51:05.828Z,79.12
2023-04-09T04:53:33.711Z,78.98
2023-04-09T04:56:01.699Z,79.04
2023-04-09T04:58:30.636Z,78.94
2023-04-09T05:00:58.746Z,78.88
2023-04-09T05:03:27.705Z,79.05
2023-04-09T05:05:56.212Z,78.89
2023-04-09T05:08:24.151Z,78.77
2023-04-09T05:10:52.112Z,78.89
2023-04-09T05:13:19.968Z,78.62
2023-04-09T05:15:47.961Z,78.73
2023-04-09T05:18:15.968Z,78.77
2023-04-09T05:20:43.865Z,78.77
2023-04-09T05:23:12.766Z,78.31
2023-04-09T05:25:41.028Z,78.22
2023-04-09T05:28:11.251Z,78.22
2023-04-09T05:30:39.348Z,78.61
2023-04-09T05:33:07.367Z,78.53
2023-04-09T05:35:39.338Z,78.63
2023-04-09T05:38:07.289Z,78.62
2023-04-09T05:40:35.551Z,78.73
2023-04-09T05:43:03.498Z,78.70
2023-04-09T05:45:31.492Z,78.36
2023-04-09T05:47:59.418Z,78.39
2023-04-09T05:50:27.530Z,78.44
2023-04-09T05:52:55.990Z,78.81
2023-04-09T05:55:23.845Z,78.28
2023-04-09T05:57:54.671Z,77.56
2023-04-09T06:00:22.548Z,77.69
2023-04-09T06:02:50.950Z,77.65
2023-04-09T06:05:18.869Z,77.49
2023-04-09T06:07:46.826Z,77.36
2023-04-09T06:10:14.680Z,77.56
2023-04-09T06:12:42.521Z,77.70
2023-04-09T06:15:11.022Z,77.98
2023-04-09T06:17:39.112Z,77.74
2023-04-09T06:20:07.782Z,77.58
2023-04-09T06:22:35.818Z,77.47
2023-04-09T06:25:04.285Z,76.98
2023-04-09T06:27:32.279Z,76.75
2023-04-09T06:30:00.376Z,76.50
2023-04-09T06:32:28.313Z,76.49
2023-04-09T06:34:56.320Z,75.93
2023-04-09T06:37:24.651Z,76.03
2023-04-09T06:40:00.497Z,75.88
2023-04-09T06:42:29.076Z,75.81
2023-04-09T06:44:57.204Z,75.73
2023-04-09T06:47:25.613Z,75.47
2023-04-09T06:49:53.575Z,74.54
2023-04-09T06:52:21.518Z,74.34
2023-04-09T06:54:49.393Z,74.06
2023-04-09T06:57:17.361Z,73.45
2023-04-09T06:59:45.761Z,73.47
2023-04-09T07:02:13.981Z,73.58
2023-04-09T07:04:42.215Z,73.40
2023-04-09T07:07:10.668Z,72.81
2023-04-09T07:09:38.639Z,73.03
2023-04-09T07:12:06.557Z,73.55
2023-04-09T07:14:34.452Z,72.82
2023-04-09T07:17:02.493Z,71.69
2023-04-09T07:19:30.994Z,71.38
2023-04-09T07:21:58.848Z,70.30
2023-04-09T07:24:26.925Z,70.52
2023-04-09T07:26:54.731Z,71.21
2023-04-09T07:29:22.662Z,70.88
2023-04-09T07:31:51.052Z,69.02
2023-04-09T07:34:19.033Z,68.85
2023-04-09T07:36:46.862Z,68.19
2023-04-09T07:39:14.673Z,66.84
2023-04-09T07:41:42.664Z,66.76
2023-04-09T07:44:10.501Z,65.75
2023-04-09T07:46:40.016Z,65.75
2023-04-09T07:49:07.961Z,66.38
2023-04-09T07:51:35.918Z,66.30
2023-04-09T07:54:03.798Z,66.88
2023-04-09T07:56:31.694Z,64.54
2023-04-09T07:58:59.544Z,64.19
2023-04-09T08:01:27.667Z,63.73
2023-04-09T08:03:55.724Z,64.72
2023-04-09T08:06:23.765Z,64.26
2023-04-09T08:08:51.926Z,64.86
2023-04-09T08:11:25.262Z,63.98
2023-04-09T08:13:53.265Z,63.77
2023-04-09T08:16:21.464Z,63.01
2023-04-09T08:18:51.375Z,62.59
2023-04-09T08:21:20.101Z,61.71
2023-04-09T08:23:48.195Z,60.94
2023-04-09T08:26:16.066Z,61.22
2023-04-09T08:28:44.005Z,61.86
2023-04-09T08:31:11.866Z,61.15
2023-04-09T08:33:39.697Z,60.72
2023-04-09T08:36:11.949Z,60.88
2023-04-09T08:38:40.766Z,61.22
2023-04-09T08:41:17.176Z,61.53
2023-04-09T08:46:21.917Z,58.29
2023-04-09T08:48:51.937Z,58.10
2023-04-09T08:51:22.733Z,59.09
2023-04-09T08:53:58.340Z,58.80
2023-04-09T08:56:26.733Z,57.35
2023-04-09T08:58:56.307Z,57.48
2023-04-09T09:01:31.902Z,57.80
2023-04-09T09:04:08.340Z,57.29
2023-04-09T09:06:38.713Z,57.48
2023-04-09T09:09:07.754Z,57.94
2023-04-09T09:11:38.017Z,58.13
2023-04-09T09:14:08.661Z,57.26
2023-04-09T09:16:45.349Z,57.18
2023-04-09T09:19:25.632Z,56.60
2023-04-09T09:22:01.846Z,55.87
2023-04-09T09:24:31.053Z,55.54
2023-04-09T09:26:59.237Z,55.14
2023-04-09T09:29:28.224Z,55.52
2023-04-09T09:31:56.641Z,55.00
2023-04-09T09:34:26.251Z,55.05
2023-04-09T09:36:54.552Z,54.27
2023-04-09T09:39:22.750Z,53.28
2023-04-09T09:42:09.660Z,53.46
2023-04-09T09:44:37.523Z,53.03
2023-04-09T09:47:06.392Z,53.84
2023-04-09T09:49:37.990Z,53.91
2023-04-09T09:52:11.567Z,52.89
2023-04-09T09:54:43.973Z,52.36
2023-04-09T09:57:14.644Z,53.03
2023-04-09T09:59:50.981Z,53.66
2023-04-09T10:02:20.682Z,54.28
2023-04-09T10:04:52.825Z,54.97
2023-04-09T10:07:22.441Z,54.46
2023-04-09T10:09:52.031Z,54.18
2023-04-09T10:12:25.786Z,53.90
2023-04-09T10:14:56.305Z,54.02
2023-04-09T10:17:24.194Z,53.76
2023-04-09T10:20:22.160Z,54.31
2023-04-09T10:22:51.838Z,54.39
2023-04-09T10:25:20.712Z,54.32
2023-04-09T10:28:16.601Z,53.73
2023-04-09T10:30:44.815Z,54.13
2023-04-09T10:33:17.166Z,53.22
2023-04-09T10:35:47.249Z,52.38
2023-04-09T10:38:15.553Z,52.29
2023-04-09T10:40:51.035Z,51.75
2023-04-09T10:43:21.124Z,51.14
2023-04-09T10:45:53.581Z,50.66
2023-04-09T10:48:26.711Z,51.30
2023-04-09T10:50:55.474Z,51.13
2023-04-09T10:53:24.870Z,50.71
2023-04-09T10:55:54.358Z,50.68
2023-04-09T10:58:22.225Z,50.97
2023-04-09T11:00:51.488Z,50.61
2023-04-09T11:03:25.312Z,50.43
2023-04-09T11:06:11.845Z,50.46
2023-04-09T11:08:41.667Z,50.79
2023-04-09T11:11:09.683Z,50.60
2023-04-09T11:13:37.592Z,50.51
2023-04-09T11:16:07.338Z,50.44
2023-04-09T11:18:37.132Z,50.48
2023-04-09T11:21:05.286Z,50.33
2023-04-09T11:23:33.980Z,50.60
2023-04-09T11:26:02.525Z,50.53
2023-04-09T11:28:30.473Z,50.69
2023-04-09T11:30:58.324Z,50.43
2023-04-09T11:33:33.254Z,50.32
2023-04-09T11:36:01.824Z,50.30
2023-04-09T11:38:31.832Z,50.44
2023-04-09T11:40:59.759Z,50.23
2023-04-09T11:43:27.814Z,50.19
2023-04-09T11:45:57.512Z,50.02
2023-04-09T11:48:26.067Z,49.97
2023-04-09T11:50:54.314Z,49.39
2023-04-09T11:53:23.756Z,49.34
2023-04-09T11:55:53.321Z,49.43
2023-04-09T11:58:26.376Z,48.87
2023-04-09T12:00:56.420Z,48.64
2023-04-09T12:03:33.170Z,48.52
2023-04-09T12:06:03.042Z,48.82
2023-04-09T12:08:31.845Z,48.89
2023-04-09T12:11:09.375Z,48.38
2023-04-09T12:13:37.360Z,48.59
2023-04-09T12:16:05.736Z,48.60
2023-04-09T12:18:36.793Z,48.57
2023-04-09T12:21:05.801Z,48.53
2023-04-09T12:23:33.657Z,47.65
2023-04-09T12:26:02.364Z,47.80
2023-04-09T12:28:30.901Z,47.99
2023-04-09T12:30:59.657Z,47.91
2023-04-09T12:33:27.608Z,47.31
2023-04-09T12:35:58.383Z,47.04
2023-04-09T12:38:26.911Z,46.83
2023-04-09T12:40:54.932Z,47.61
2023-04-09T12:43:22.900Z,47.10
2023-04-09T12:45:52.871Z,46.89
2023-04-09T12:48:20.981Z,46.70
2023-04-09T12:50:48.882Z,45.91
2023-04-09T12:53:16.825Z,45.81
2023-04-09T12:55:44.729Z,45.85
2023-04-09T12:58:12.672Z,45.84
2023-04-09T13:00:40.809Z,46.08
2023-04-09T13:03:09.270Z,45.78
2023-04-09T13:05:37.344Z,45.34
2023-04-09T13:08:05.288Z,44.16
2023-04-09T13:10:33.380Z,43.88
2023-04-09T13:13:01.534Z,43.82
2023-04-09T13:15:29.580Z,43.06
2023-04-09T13:17:57.637Z,43.46
2023-04-09T13:20:25.632Z,43.73
2023-04-09T13:22:53.500Z,43.87
2023-04-09T13:25:21.504Z,43.93
2023-04-09T13:27:49.445Z,44.07
2023-04-09T13:30:17.424Z,43.62
2023-04-09T13:32:45.893Z,43.74
2023-04-09T13:35:14.096Z,43.88
2023-04-09T13:37:42.254Z,43.76
2023-04-09T13:40:10.681Z,43.26
2023-04-09T13:42:38.604Z,43.55
2023-04-09T13:45:07.143Z,44.07
2023-04-09T13:47:35.159Z,44.46
2023-04-09T13:50:03.200Z,44.49
2023-04-09T13:52:32.855Z,44.66
2023-04-09T13:55:00.824Z,45.11
2023-04-09T13:57:28.680Z,44.79
2023-04-09T13:59:56.596Z,44.59
2023-04-09T14:02:24.929Z,43.84
2023-04-09T14:04:53.107Z,44.04
2023-04-09T14:07:21.132Z,45.10
2023-04-09T14:09:50.797Z,44.67
2023-04-09T14:12:18.786Z,43.80
2023-04-09T14:14:46.645Z,43.56
2023-04-09T14:17:14.620Z,43.45
2023-04-09T14:19:42.559Z,44.30
2023-04-09T14:22:11.607Z,44.38
2023-04-09T14:24:42.200Z,44.23
2023-04-09T14:27:10.323Z,44.21
2023-04-09T14:29:38.193Z,44.61
2023-04-09T14:32:06.281Z,44.58
2023-04-09T14:34:34.295Z,44.29
2023-04-09T14:37:02.903Z,44.51
2023-04-09T14:39:30.835Z,44.54
2023-04-09T14:41:58.627Z,43.92
2023-04-09T14:44:27.301Z,43.43
2023-04-09T14:46:56.912Z,43.23
2023-04-09T14:49:25.257Z,43.32
2023-04-09T14:51:53.141Z,44.11
2023-04-09T14:54:21.349Z,43.75
2023-04-09T14:56:49.245Z,43.69
2023-04-09T14:59:17.106Z,44.06
2023-04-09T15:01:45.265Z,44.51
2023-04-09T15:04:13.353Z,45.45
2023-04-09T15:06:41.333Z,46.05
2023-04-09T15:09:09.312Z,45.39
2023-04-09T15:11:37.166Z,45.02
2023-04-09T15:14:04.948Z,45.33
2023-04-09T15:16:37.428Z,45.20
2023-04-09T15:19:05.616Z,45.54
2023-04-09T15:21:33.492Z,45.72
2023-04-09T15:24:01.550Z,45.74
2023-04-09T15:26:29.458Z,45.31
2023-04-09T15:29:07.917Z,45.30
2023-04-09T15:31:36.399Z,45.88
2023-04-09T15:34:05.220Z,46.55
2023-04-09T15:36:33.116Z,46.16
2023-04-09T15:39:05.077Z,46.14
2023-04-09T15:41:33.962Z,46.19
2023-04-09T15:44:01.806Z,46.56
2023-04-09T15:46:29.756Z,47.16
2023-04-09T15:48:57.627Z,47.16
2023-04-09T15:51:27.070Z,47.56
2023-04-09T15:53:55.452Z,47.99
2023-04-09T15:56:23.786Z,47.86
2023-04-09T15:58:51.802Z,47.86
2023-04-09T16:01:20.133Z,47.67
2023-04-09T16:03:52.130Z,47.91
2023-04-09T16:06:20.235Z,48.04
2023-04-09T16:08:48.225Z,48.49
2023-04-09T16:11:17.474Z,48.67
2023-04-09T16:13:46.286Z,48.44
2023-04-09T16:16:14.278Z,48.73
2023-04-09T16:18:42.280Z,49.15
2023-04-09T16:21:10.127Z,49.97
2023-04-09T16:23:38.652Z,49.93
2023-04-09T16:26:07.120Z,49.79
2023-04-09T16:28:35.118Z,49.93
2023-04-09T16:31:03.212Z,50.01
2023-04-09T16:33:31.254Z,50.74
2023-04-09T16:35:59.580Z,50.89
2023-04-09T16:38:29.257Z,50.61
2023-04-09T16:40:57.230Z,50.42
2023-04-09T16:43:25.883Z,50.54
2023-04-09T16:45:53.881Z,50.65
2023-04-09T16:48:21.898Z,51.13
2023-04-09T16:50:49.786Z,51.65
2023-04-09T16:53:17.834Z,51.92
2023-04-09T16:55:45.843Z,51.90
2023-04-09T16:58:13.701Z,51.89
2023-04-09T17:00:42.068Z,52.21
2023-04-09T17:03:10.330Z,52.21
2023-04-09T17:05:38.468Z,52.59
2023-04-09T17:08:06.873Z,52.85
2023-04-09T17:10:36.888Z,53.19
2023-04-09T17:13:04.833Z,53.21
2023-04-09T17:15:32.636Z,53.42
2023-04-09T17:18:01.609Z,53.58
2023-04-09T17:20:30.121Z,53.85
2023-04-09T17:22:57.982Z,53.90
2023-04-09T17:25:26.034Z,54.84
2023-04-09T17:27:54.580Z,55.18
2023-04-09T17:30:22.491Z,55.28
2023-04-09T17:32:51.338Z,55.48
2023-04-09T17:35:19.296Z,55.75
2023-04-09T17:37:47.282Z,56.27
2023-04-09T17:40:17.521Z,56.59
2023-04-09T17:42:46.497Z,57.00
2023-04-09T17:45:15.005Z,57.01
2023-04-09T17:47:42.919Z,56.93
2023-04-09T17:50:11.359Z,56.95
2023-04-09T17:52:40.676Z,57.29
2023-04-09T17:55:12.441Z,57.58
2023-04-09T17:57:41.916Z,58.11
2023-04-09T18:00:11.140Z,58.23
2023-04-09T18:02:39.593Z,58.41
2023-04-09T18:05:08.472Z,58.37
2023-04-09T18:07:36.803Z,58.68
2023-04-09T18:10:05.587Z,59.30
2023-04-09T18:12:33.547Z,59.37
2023-04-09T18:15:01.598Z,59.54
2023-04-09T18:17:29.672Z,59.82
2023-04-09T18:19:58.465Z,59.45
2023-04-09T18:22:27.670Z,59.20
2023-04-09T18:24:55.875Z,59.47
2023-04-09T18:27:23.770Z,59.82
2023-04-09T18:29:51.777Z,59.80
2023-04-09T18:32:19.945Z,59.68
2023-04-09T18:34:49.681Z,59.84
2023-04-09T18:37:18.385Z,59.80
2023-04-09T18:39:46.859Z,60.18
2023-04-09T18:42:14.738Z,60.23
2023-04-09T18:44:42.828Z,60.37
2023-04-09T18:47:11.230Z,60.76
2023-04-09T18:49:39.170Z,61.64
2023-04-09T18:52:13.198Z,61.55
2023-04-09T18:54:41.078Z,61.47
2023-04-09T18:57:09.025Z,61.99
2023-04-09T18:59:37.394Z,62.22
2023-04-09T19:02:06.019Z,61.86
2023-04-09T19:04:36.587Z,62.14
2023-04-09T19:07:05.314Z,62.27
2023-04-09T19:09:33.722Z,62.31
2023-04-09T19:12:02.288Z,62.28
2023-04-09T19:14:30.487Z,62.61
2023-04-09T19:16:59.653Z,62.58
2023-04-09T19:19:29.170Z,62.56
2023-04-09T19:21:58.518Z,62.28
2023-04-09T19:24:26.489Z,62.00
2023-04-09T19:26:55.103Z,61.86
2023-04-09T19:29:22.995Z,61.73
2023-04-09T19:31:51.204Z,61.86
2023-04-09T19:34:19.126Z,61.66
2023-04-09T19:36:46.884Z,61.53
2023-04-09T19:39:15.503Z,61.38
2023-04-09T19:41:46.078Z,61.68
2023-04-09T19:44:14.048Z,61.92
2023-04-09T19:46:41.894Z,61.93
2023-04-09T19:49:09.773Z,61.82
2023-04-09T19:51:38.887Z,62.04
2023-04-09T19:54:06.994Z,62.09
2023-04-09T19:56:35.071Z,62.23
2023-04-09T19:59:03.011Z,62.36
2023-04-09T20:01:31.047Z,62.60
2023-04-09T20:03:59.884Z,63.06
2023-04-09T20:06:28.970Z,63.13
2023-04-09T20:08:56.948Z,62.68
2023-04-09T20:11:24.900Z,62.61
2023-04-09T20:13:52.867Z,63.02
2023-04-09T20:16:20.782Z,62.92
2023-04-09T20:18:48.761Z,63.21
2023-04-09T20:21:16.697Z,63.77
2023-04-09T20:23:45.587Z,63.62
2023-04-09T20:26:13.848Z,63.80
2023-04-09T20:28:42.095Z,64.02
2023-04-09T20:31:10.047Z,63.99
2023-04-09T20:33:37.979Z,63.98
2023-04-09T20:36:17.285Z,64.04
2023-04-09T20:38:45.501Z,64.11
2023-04-09T20:41:13.645Z,64.31
2023-04-09T20:43:41.560Z,64.31
2023-04-09T20:46:09.731Z,64.23
2023-04-09T20:48:38.101Z,64.05
2023-04-09T20:51:10.780Z,64.20
2023-04-09T20:53:39.153Z,64.14
2023-04-09T20:56:08.581Z,64.14
2023-04-09T20:58:36.831Z,64.17
2023-04-09T21:01:07.407Z,64.26
2023-04-09T21:03:36.742Z,64.23
2023-04-09T21:06:05.421Z,64.40
2023-04-09T21:08:33.226Z,64.32
2023-04-09T21:11:02.252Z,64.68
2023-04-09T21:13:33.719Z,64.62
2023-04-09T21:16:08.595Z,64.79
2023-04-09T21:18:36.563Z,64.64
2023-04-09T21:21:07.992Z,64.95
2023-04-09T21:23:35.929Z,65.01
2023-04-09T21:26:05.010Z,64.87
2023-04-09T21:28:33.130Z,64.88
2023-04-09T21:31:00.993Z,65.24
2023-04-09T21:33:30.194Z,65.08
2023-04-09T21:35:58.424Z,64.89
2023-04-09T21:38:26.403Z,65.14
2023-04-09T21:40:54.287Z,65.21
2023-04-09T21:43:22.201Z,65.11
2023-04-09T21:45:50.732Z,65.15
2023-04-09T21:48:18.581Z,65.34
2023-04-09T21:50:46.500Z,65.26
2023-04-09T21:53:15.656Z,65.52
2023-04-09T21:55:43.552Z,65.44
2023-04-09T21:58:12.142Z,65.27
2023-04-09T22:00:40.123Z,65.14
2023-04-09T22:03:08.259Z,65.08
2023-04-09T22:05:36.590Z,65.38
2023-04-09T22:08:04.455Z,65.50
2023-04-09T22:10:32.385Z,65.14
2023-04-09T22:13:00.281Z,65.27
2023-04-09T22:15:28.345Z,65.29
2023-04-09T22:17:56.312Z,65.33
2023-04-09T22:20:26.226Z,65.35
2023-04-09T22:22:54.755Z,65.17
2023-04-09T22:25:22.733Z,65.34
2023-04-09T22:27:53.310Z,65.10
2023-04-09T22:30:22.004Z,65.07
2023-04-09T22:32:51.526Z,64.93
2023-04-09T22:35:19.564Z,65.19
2023-04-09T22:37:47.548Z,65.27
2023-04-09T22:40:16.025Z,65.45
2023-04-09T22:42:46.681Z,65.38
2023-04-09T22:45:14.679Z,65.43
2023-04-09T22:47:42.542Z,65.44
2023-04-09T22:50:11.211Z,65.39
2023-04-09T22:52:39.082Z,65.46
2023-04-09T22:55:10.128Z,65.39
2023-04-09T22:57:38.450Z,65.24
2023-04-09T23:00:08.506Z,65.16
2023-04-09T23:02:37.055Z,65.06
2023-04-09T23:05:05.840Z,65.07
2023-04-09T23:07:34.083Z,65.21
2023-04-09T23:10:02.071Z,65.37
2023-04-09T23:12:29.861Z,65.43
2023-04-09T23:14:57.767Z,65.30
2023-04-09T23:17:27.890Z,65.49
2023-04-09T23:19:55.804Z,65.49
2023-04-09T23:22:24.392Z,65.51
2023-04-09T23:24:52.218Z,65.44
2023-04-09T23:27:20.327Z,65.51
2023-04-09T23:29:48.317Z,65.48
2023-04-09T23:32:16.325Z,65.64
2023-04-09T23:34:44.140Z,65.91
2023-04-09T23:37:12.110Z,65.99
2023-04-09T23:39:41.262Z,65.95
2023-04-09T23:42:09.206Z,65.95
2023-04-09T23:44:37.164Z,66.08
2023-04-09T23:47:06.588Z,66.15
2023-04-09T23:49:34.454Z,66.11
2023-04-09T23:52:02.283Z,66.42
2023-04-09T23:54:30.798Z,66.30
2023-04-09T23:56:59.705Z,66.30
2023-04-09T23:59:27.831Z,66.29
